Time;durP1;ratioP1;P1;durP2;ratioP2;P2;SDS_P1;SDS_P2;PMS_P1;PMS_P2;Temp;Humidity;BMP_temperature;BMP_pressure;BME280_temperature;BME280_humidity;BME280_pressure;Samples;Min_cycle;Max_cycle;Signal;HPM_P1;HPM_P2
2023/03/25 00:01:00;;;;;;;7.93;4.53;;;11.70;95.70;;;;;;5091790;28;20117;-70
2023/03/25 00:03:28;;;;;;;12.35;8.75;;;11.70;95.90;;;;;;5092096;28;20028;-70
2023/03/25 00:05:55;;;;;;;7.35;5.25;;;11.70;96.00;;;;;;5093082;28;20042;-70
2023/03/25 00:08:21;;;;;;;10.10;5.20;;;11.70;96.10;;;;;;5091306;28;20511;-69
2023/03/25 00:10:55;;;;;;;7.43;4.97;;;11.70;96.20;;;;;;5087081;28;20063;-70
2023/03/25 00:13:22;;;;;;;12.93;6.18;;;11.70;96.30;;;;;;5092817;28;20050;-69
2023/03/25 00:15:52;;;;;;;11.32;7.15;;;11.60;96.30;;;;;;5092893;28;20032;-69
2023/03/25 00:18:21;;;;;;;7.20;4.00;;;11.60;96.40;;;;;;5100809;28;20079;-68
2023/03/25 00:20:51;;;;;;;7.15;4.15;;;11.60;96.40;;;;;;5099042;28;20486;-69
2023/03/25 00:23:19;;;;;;;6.40;3.78;;;11.60;96.50;;;;;;5095775;28;20063;-70
2023/03/25 00:25:45;;;;;;;12.13;5.68;;;11.60;96.50;;;;;;5092066;28;20032;-69
2023/03/25 00:28:12;;;;;;;13.45;8.77;;;11.60;96.70;;;;;;5096888;28;20024;-69
2023/03/25 00:30:39;;;;;;;9.48;6.00;;;11.60;96.70;;;;;;5109788;28;20024;-69
2023/03/25 00:33:04;;;;;;;7.07;4.30;;;11.60;96.80;;;;;;5096028;28;20062;-70
2023/03/25 00:35:31;;;;;;;4.60;3.00;;;11.60;96.80;;;;;;5093034;28;20070;-69
2023/03/25 00:38:00;;;;;;;4.90;3.42;;;11.60;96.80;;;;;;5089555;28;20032;-70
2023/03/25 00:40:29;;;;;;;5.32;3.10;;;11.50;96.90;;;;;;5092920;28;20503;-69
2023/03/25 00:42:55;;;;;;;4.82;3.25;;;11.50;97.00;;;;;;5089599;28;20046;-69
2023/03/25 00:45:21;;;;;;;4.95;2.90;;;11.50;97.00;;;;;;5091446;28;20070;-69
2023/03/25 00:47:47;;;;;;;4.88;2.53;;;11.50;97.30;;;;;;5091995;28;20059;-69
2023/03/25 00:50:15;;;;;;;3.72;2.92;;;11.50;97.20;;;;;;5093954;28;20031;-69
2023/03/25 00:52:41;;;;;;;4.80;3.22;;;11.50;97.20;;;;;;5083909;28;20407;-69
2023/03/25 00:55:07;;;;;;;4.47;3.35;;;11.50;97.30;;;;;;5081572;28;20021;-69
2023/03/25 00:57:33;;;;;;;6.43;4.00;;;11.40;97.30;;;;;;5089962;28;20051;-70
2023/03/25 00:59:59;;;;;;;5.13;4.20;;;11.40;97.30;;;;;;5092464;28;20140;-69
2023/03/25 01:02:25;;;;;;;4.72;3.28;;;11.30;97.40;;;;;;5092003;28;20071;-68
2023/03/25 01:04:50;;;;;;;4.65;3.22;;;11.30;97.40;;;;;;5091919;28;20024;-70
2023/03/25 01:07:19;;;;;;;6.22;4.10;;;11.30;97.40;;;;;;5090863;28;20426;-70
2023/03/25 01:09:45;;;;;;;6.20;5.32;;;11.30;97.50;;;;;;5073971;28;20028;-70
2023/03/25 01:12:12;;;;;;;6.45;4.50;;;11.20;97.50;;;;;;5090061;28;20058;-69
2023/03/25 01:14:38;;;;;;;4.47;3.13;;;11.20;97.70;;;;;;5089520;28;20093;-71
2023/03/25 01:17:03;;;;;;;5.05;3.15;;;11.20;97.70;;;;;;5090457;28;20082;-71
2023/03/25 01:19:30;;;;;;;4.95;2.80;;;11.20;97.70;;;;;;5091897;28;20024;-70
2023/03/25 01:21:55;;;;;;;8.70;2.90;;;11.20;97.70;;;;;;5090281;28;20028;-70
2023/03/25 01:24:21;;;;;;;5.47;2.90;;;11.20;97.70;;;;;;5090311;28;20032;-70
2023/03/25 01:26:47;;;;;;;7.47;3.55;;;11.20;97.80;;;;;;5077738;28;20031;-70
2023/03/25 01:29:15;;;;;;;4.78;2.80;;;11.20;97.80;;;;;;5092752;28;20652;-70
2023/03/25 01:31:40;;;;;;;5.45;3.00;;;11.20;98.10;;;;;;5096198;28;20371;-70
2023/03/25 01:34:07;;;;;;;6.57;4.57;;;11.20;97.90;;;;;;5092411;28;20024;-71
2023/03/25 01:36:38;;;;;;;5.68;3.75;;;11.20;98.00;;;;;;5089970;28;20436;-71
2023/03/25 01:39:05;;;;;;;5.43;3.05;;;11.20;98.00;;;;;;5091401;28;20406;-69
2023/03/25 01:41:32;;;;;;;7.80;3.20;;;11.10;98.00;;;;;;5093465;28;20035;-71
2023/03/25 01:44:20;;;;;;;5.15;2.75;;;11.20;98.10;;;;;;5071200;28;20056;-71
2023/03/25 01:46:48;;;;;;;4.88;2.67;;;11.10;98.10;;;;;;5082966;28;20491;-71
2023/03/25 01:49:30;;;;;;;4.97;2.65;;;11.20;98.10;;;;;;5089820;28;20115;-70
2023/03/25 01:52:02;;;;;;;4.68;2.88;;;11.10;98.10;;;;;;5090593;28;20024;-70
2023/03/25 01:54:28;;;;;;;6.53;3.47;;;11.10;98.20;;;;;;5089895;28;20059;-71
2023/03/25 01:56:54;;;;;;;7.80;4.70;;;11.10;98.20;;;;;;5111088;28;20055;-72
2023/03/25 01:59:24;;;;;;;6.47;4.57;;;11.10;98.20;;;;;;5081474;27;20407;-71
2023/03/25 02:01:52;;;;;;;8.23;4.03;;;11.10;98.30;;;;;;5076704;28;20490;-71
2023/03/25 02:04:33;;;;;;;5.78;3.95;;;11.00;98.30;;;;;;5090597;28;20028;-71
2023/03/25 02:07:00;;;;;;;5.30;3.75;;;11.00;98.40;;;;;;5093068;28;20032;-72
2023/03/25 02:09:26;;;;;;;8.32;3.35;;;11.00;98.40;;;;;;5089406;28;20499;-72
2023/03/25 02:11:53;;;;;;;3.78;2.50;;;11.00;98.50;;;;;;5093438;28;20042;-72
2023/03/25 02:14:25;;;;;;;4.03;2.17;;;11.00;98.50;;;;;;5112304;28;20028;-72
2023/03/25 02:16:57;;;;;;;3.65;2.60;;;11.00;98.50;;;;;;5088188;28;20136;-73
2023/03/25 02:19:50;;;;;;;3.95;2.80;;;11.00;98.50;;;;;;5092096;28;20020;-72
2023/03/25 02:22:40;;;;;;;6.22;3.15;;;11.00;98.60;;;;;;5082358;28;20054;-72
2023/03/25 02:25:38;;;;;;;3.88;2.63;;;11.00;98.70;;;;;;5083650;28;20035;-72
2023/03/25 02:28:35;;;;;;;3.83;2.88;;;11.00;98.70;;;;;;5089044;28;20036;-72
2023/03/25 02:31:31;;;;;;;6.10;3.22;;;11.00;98.70;;;;;;5090892;28;20031;-72
2023/03/25 02:34:11;;;;;;;6.28;3.78;;;11.10;98.80;;;;;;5070948;28;20040;-72
2023/03/25 02:37:02;;;;;;;5.50;3.25;;;11.10;99.10;;;;;;5082074;28;20088;-71
2023/03/25 02:39:51;;;;;;;4.80;3.05;;;11.10;98.90;;;;;;5090268;28;20043;-72
2023/03/25 02:42:30;;;;;;;5.38;3.47;;;11.20;98.90;;;;;;5090007;28;20036;-73
2023/03/25 02:45:02;;;;;;;6.43;3.40;;;11.20;98.90;;;;;;5091597;28;20062;-72
2023/03/25 02:47:49;;;;;;;4.07;2.90;;;11.30;99.00;;;;;;5091310;28;20040;-72
2023/03/25 02:50:33;;;;;;;6.05;3.20;;;11.30;98.90;;;;;;5095336;28;20605;-72
2023/03/25 02:53:04;;;;;;;11.93;7.10;;;11.30;99.00;;;;;;5095347;28;20024;-72
2023/03/25 02:55:32;;;;;;;12.20;8.52;;;11.30;98.90;;;;;;5105462;28;20024;-72
2023/03/25 02:58:02;;;;;;;14.05;8.38;;;11.30;99.00;;;;;;5082666;28;20466;-71
2023/03/25 03:00:29;;;;;;;10.20;6.35;;;11.30;99.00;;;;;;5089866;28;20424;-71
2023/03/25 03:03:00;;;;;;;17.23;10.68;;;11.30;98.90;;;;;;5101404;28;20039;-72
2023/03/25 03:05:26;;;;;;;18.80;9.95;;;11.40;99.00;;;;;;5094175;28;20097;-71
2023/03/25 03:08:07;;;;;;;12.30;7.80;;;11.30;99.00;;;;;;5092813;28;20143;-72
2023/03/25 03:10:51;;;;;;;6.53;4.78;;;11.30;99.00;;;;;;5091625;28;20032;-72
2023/03/25 03:13:23;;;;;;;9.15;5.25;;;11.30;99.10;;;;;;5106769;28;20096;-72
2023/03/25 03:15:57;;;;;;;10.43;6.32;;;11.30;99.30;;;;;;5096055;28;20039;-72
2023/03/25 03:18:33;;;;;;;7.45;5.35;;;11.30;99.40;;;;;;5093802;28;20123;-72
2023/03/25 03:21:05;;;;;;;5.82;4.10;;;11.30;99.10;;;;;;5093186;28;20383;-72
2023/03/25 03:24:09;;;;;;;5.10;2.67;;;11.40;99.20;;;;;;5100567;28;20035;-71
2023/03/25 03:27:07;;;;;;;5.28;2.50;;;11.40;99.20;;;;;;5072053;28;20033;-73
2023/03/25 03:29:45;;;;;;;4.80;2.50;;;11.50;99.10;;;;;;5077647;28;20035;-72
2023/03/25 03:32:35;;;;;;;7.07;2.15;;;11.50;99.10;;;;;;5096806;28;20028;-74
2023/03/25 03:35:08;;;;;;;5.43;2.15;;;11.50;99.20;;;;;;5115416;28;20039;-74
2023/03/25 03:37:40;;;;;;;4.40;2.38;;;11.60;99.20;;;;;;5090053;28;20028;-75
2023/03/25 03:40:26;;;;;;;6.30;2.72;;;11.60;99.30;;;;;;5074161;28;20031;-74
2023/03/25 03:43:15;;;;;;;2.83;1.83;;;11.60;99.40;;;;;;5074235;28;20041;-74
2023/03/25 03:45:48;;;;;;;4.05;2.33;;;11.60;99.50;;;;;;5093128;28;20472;-74
2023/03/25 03:48:27;;;;;;;3.35;2.42;;;11.70;99.60;;;;;;5093251;28;20024;-74
2023/03/25 03:50:59;;;;;;;3.70;2.10;;;11.70;99.90;;;;;;5091474;28;20016;-75
2023/03/25 03:53:42;;;;;;;5.90;2.33;;;11.70;99.80;;;;;;5104425;28;20476;-74
2023/03/25 03:56:15;;;;;;;4.10;2.13;;;11.70;99.90;;;;;;5084422;28;20024;-75
2023/03/25 03:58:41;;;;;;;2.80;1.83;;;11.70;99.90;;;;;;5092747;28;20036;-73
2023/03/25 04:01:29;;;;;;;4.07;2.28;;;11.70;99.90;;;;;;5085170;28;20081;-74
2023/03/25 04:03:59;;;;;;;4.80;2.13;;;11.60;99.90;;;;;;5092344;28;20036;-74
2023/03/25 04:06:40;;;;;;;6.32;1.92;;;11.70;99.90;;;;;;5093291;28;20028;-74
2023/03/25 04:09:17;;;;;;;5.05;2.30;;;11.60;99.90;;;;;;5091992;28;20024;-73
2023/03/25 04:11:52;;;;;;;4.47;1.80;;;11.70;99.90;;;;;;5094204;28;20035;-73
2023/03/25 04:14:18;;;;;;;5.25;2.20;;;11.60;99.90;;;;;;5093426;28;20103;-73
2023/03/25 04:16:44;;;;;;;6.55;2.28;;;11.60;99.90;;;;;;5094013;28;20036;-73
2023/03/25 04:19:12;;;;;;;4.05;1.52;;;11.70;99.90;;;;;;5091086;28;20043;-73
2023/03/25 04:21:38;;;;;;;2.55;1.50;;;11.70;99.90;;;;;;5094618;28;20031;-74
2023/03/25 04:24:07;;;;;;;5.05;1.55;;;11.70;99.90;;;;;;5085372;28;20574;-73
2023/03/25 04:26:36;;;;;;;2.22;1.63;;;11.70;99.90;;;;;;5082140;28;20036;-73
2023/03/25 04:29:03;;;;;;;4.75;1.60;;;11.70;99.90;;;;;;5077158;28;20036;-73
2023/03/25 04:31:32;;;;;;;2.95;1.60;;;11.70;99.90;;;;;;5076859;28;20032;-73
2023/03/25 04:33:59;;;;;;;3.75;1.80;;;11.70;99.90;;;;;;5079613;28;20020;-72
2023/03/25 04:36:28;;;;;;;3.50;1.70;;;11.70;99.90;;;;;;5074402;28;20036;-73
2023/03/25 04:38:55;;;;;;;3.20;1.65;;;11.70;99.90;;;;;;5092134;28;20031;-73
2023/03/25 04:41:23;;;;;;;2.83;1.40;;;11.80;99.90;;;;;;5092757;28;20048;-73
2023/03/25 04:43:49;;;;;;;3.97;1.48;;;11.80;99.90;;;;;;5089704;28;20054;-72
2023/03/25 04:46:16;;;;;;;3.13;1.40;;;11.80;99.90;;;;;;5092639;28;20468;-72
2023/03/25 04:48:44;;;;;;;3.45;1.73;;;11.80;99.90;;;;;;5091682;28;20044;-73
2023/03/25 04:51:11;;;;;;;2.83;1.70;;;11.80;99.90;;;;;;5090719;28;20356;-72
2023/03/25 04:53:40;;;;;;;2.92;1.40;;;11.80;99.90;;;;;;5097329;28;20027;-72
2023/03/25 04:56:14;;;;;;;3.55;1.52;;;11.70;99.90;;;;;;5092700;28;20032;-72
2023/03/25 04:58:41;;;;;;;3.20;1.50;;;11.70;99.90;;;;;;5090809;28;20530;-72
2023/03/25 05:01:11;;;;;;;2.70;1.40;;;11.70;99.90;;;;;;5093584;28;20433;-72
2023/03/25 05:03:38;;;;;;;2.22;1.50;;;11.70;99.90;;;;;;5100854;28;20053;-72
2023/03/25 05:06:05;;;;;;;3.97;1.60;;;11.70;99.90;;;;;;5093340;28;20050;-71
2023/03/25 05:08:31;;;;;;;2.70;1.48;;;11.70;99.90;;;;;;5095430;28;20031;-72
2023/03/25 05:10:56;;;;;;;4.32;1.77;;;11.70;99.90;;;;;;5091224;28;20052;-72
2023/03/25 05:13:22;;;;;;;2.15;1.50;;;11.60;99.90;;;;;;5083541;28;20090;-72
2023/03/25 05:15:48;;;;;;;2.13;1.27;;;11.60;99.90;;;;;;5091195;28;20162;-72
2023/03/25 05:18:16;;;;;;;3.25;1.73;;;11.60;99.90;;;;;;5092047;28;20043;-72
2023/03/25 05:20:43;;;;;;;3.25;1.55;;;11.60;99.90;;;;;;5087698;28;20040;-72
2023/03/25 05:23:14;;;;;;;3.97;1.85;;;11.60;99.90;;;;;;5091602;28;20138;-72
2023/03/25 05:25:41;;;;;;;4.35;1.50;;;11.50;99.90;;;;;;5091643;28;20028;-73
2023/03/25 05:28:12;;;;;;;3.17;1.60;;;11.50;99.90;;;;;;5090702;28;20106;-72
2023/03/25 05:30:44;;;;;;;2.83;1.52;;;11.50;99.90;;;;;;5090795;28;20020;-73
2023/03/25 05:33:12;;;;;;;3.75;1.70;;;11.50;99.90;;;;;;5088524;28;20036;-72
2023/03/25 05:35:38;;;;;;;3.50;2.05;;;11.40;99.90;;;;;;5091555;28;20027;-73
2023/03/25 05:38:06;;;;;;;5.78;2.13;;;11.50;99.90;;;;;;5093024;28;20036;-73
2023/03/25 05:40:33;;;;;;;4.10;2.00;;;11.40;99.90;;;;;;5105374;28;20483;-72
2023/03/25 05:42:59;;;;;;;4.13;1.75;;;11.40;99.90;;;;;;5096651;28;20123;-72
2023/03/25 05:45:25;;;;;;;3.47;1.50;;;11.50;99.90;;;;;;5104417;28;20167;-72
2023/03/25 05:47:51;;;;;;;3.45;1.77;;;11.50;99.90;;;;;;5083720;28;20136;-73
2023/03/25 05:50:17;;;;;;;4.35;1.60;;;11.40;99.90;;;;;;5094663;28;20284;-73
2023/03/25 05:52:42;;;;;;;2.28;1.55;;;11.50;99.90;;;;;;5096765;28;20110;-73
2023/03/25 05:55:18;;;;;;;6.05;1.52;;;11.50;99.90;;;;;;5105393;28;20505;-73
2023/03/25 05:57:43;;;;;;;3.45;1.55;;;11.60;99.90;;;;;;5071827;28;20029;-73
2023/03/25 06:00:11;;;;;;;4.93;1.48;;;11.60;99.90;;;;;;5090944;28;20133;-73
2023/03/25 06:02:41;;;;;;;4.05;1.88;;;11.60;99.90;;;;;;5095523;28;20517;-73
2023/03/25 06:05:09;;;;;;;2.30;1.30;;;11.60;99.90;;;;;;5097482;28;20103;-73
2023/03/25 06:07:36;;;;;;;2.90;1.23;;;11.70;99.90;;;;;;5090798;28;20161;-73
2023/03/25 06:10:04;;;;;;;3.25;1.30;;;11.70;99.90;;;;;;5097051;28;20024;-73
2023/03/25 06:12:32;;;;;;;4.07;1.40;;;11.70;99.90;;;;;;5094974;28;20028;-73
2023/03/25 06:14:58;;;;;;;3.03;1.50;;;11.80;99.90;;;;;;5106528;28;20051;-73
2023/03/25 06:17:24;;;;;;;3.92;1.60;;;11.80;99.90;;;;;;5103960;27;20483;-74
2023/03/25 06:19:52;;;;;;;2.25;1.27;;;11.80;99.90;;;;;;5109971;28;20039;-74
2023/03/25 06:22:20;;;;;;;3.13;1.42;;;11.90;99.90;;;;;;5105483;28;20492;-75
2023/03/25 06:24:47;;;;;;;3.42;1.23;;;11.90;99.90;;;;;;5084254;28;20032;-73
2023/03/25 06:27:18;;;;;;;3.03;1.25;;;11.90;99.90;;;;;;5092286;28;20376;-74
2023/03/25 06:29:44;;;;;;;2.05;1.02;;;11.90;99.90;;;;;;5090248;28;20024;-74
2023/03/25 06:32:14;;;;;;;3.72;1.65;;;11.90;99.90;;;;;;5091907;28;20024;-74
2023/03/25 06:34:43;;;;;;;1.63;0.90;;;11.90;99.90;;;;;;5103239;28;20039;-73
2023/03/25 06:37:09;;;;;;;2.20;1.20;;;12.00;99.80;;;;;;5111772;28;20046;-73
2023/03/25 06:39:36;;;;;;;2.60;1.40;;;12.00;99.70;;;;;;5089994;28;20089;-73
2023/03/25 06:42:03;;;;;;;1.92;1.10;;;12.00;99.60;;;;;;5078688;28;20044;-73
2023/03/25 06:44:29;;;;;;;1.90;0.90;;;12.10;99.60;;;;;;5090401;28;20028;-75
2023/03/25 06:46:55;;;;;;;4.47;1.23;;;12.20;99.60;;;;;;5089577;28;20032;-75
2023/03/25 06:49:21;;;;;;;2.80;1.05;;;12.20;99.50;;;;;;5099386;28;20030;-74
2023/03/25 06:51:47;;;;;;;2.53;1.33;;;12.20;99.40;;;;;;5111777;28;20360;-73
2023/03/25 06:54:17;;;;;;;1.38;1.00;;;12.20;99.30;;;;;;5101779;28;20028;-73
2023/03/25 06:56:43;;;;;;;2.33;1.08;;;12.30;99.30;;;;;;5087443;28;20029;-74
2023/03/25 06:59:08;;;;;;;2.78;1.30;;;12.30;99.20;;;;;;5090136;28;20040;-73
2023/03/25 07:01:34;;;;;;;2.72;1.25;;;12.30;99.30;;;;;;5090978;28;20059;-74
2023/03/25 07:03:59;;;;;;;2.20;1.10;;;12.30;99.20;;;;;;5097903;28;20394;-72
2023/03/25 07:06:25;;;;;;;3.95;1.10;;;12.30;99.10;;;;;;5109819;28;20107;-73
2023/03/25 07:08:50;;;;;;;2.53;1.10;;;12.30;99.10;;;;;;5105084;28;20059;-73
2023/03/25 07:11:23;;;;;;;2.28;1.38;;;12.30;99.10;;;;;;5079339;28;20536;-73
2023/03/25 07:13:52;;;;;;;2.38;1.42;;;12.30;99.00;;;;;;5080915;28;20094;-71
2023/03/25 07:16:19;;;;;;;3.28;1.05;;;12.30;99.00;;;;;;5083020;28;20077;-67
2023/03/25 07:18:45;;;;;;;2.63;1.40;;;12.30;98.90;;;;;;5088678;28;20498;-67
2023/03/25 07:21:10;;;;;;;2.42;1.23;;;12.30;98.90;;;;;;5085113;28;20089;-66
2023/03/25 07:23:36;;;;;;;2.63;1.15;;;12.30;98.90;;;;;;5090221;28;20039;-68
2023/03/25 07:26:02;;;;;;;1.65;0.90;;;12.30;98.90;;;;;;5101474;28;20034;-68
2023/03/25 07:28:27;;;;;;;1.88;0.93;;;12.30;98.80;;;;;;5094251;28;20077;-68
2023/03/25 07:30:53;;;;;;;2.22;1.38;;;12.30;98.80;;;;;;5095187;28;20024;-69
2023/03/25 07:33:18;;;;;;;2.22;1.10;;;12.30;98.80;;;;;;5109206;28;20031;-69
2023/03/25 07:35:44;;;;;;;1.30;0.85;;;12.30;98.80;;;;;;5107172;28;20023;-69
2023/03/25 07:38:10;;;;;;;3.47;1.13;;;12.40;98.80;;;;;;5096491;28;20509;-69
2023/03/25 07:40:36;;;;;;;2.20;0.93;;;12.40;98.80;;;;;;5090838;28;20028;-68
2023/03/25 07:43:01;;;;;;;4.22;1.30;;;12.40;98.70;;;;;;5106840;28;20111;-68
2023/03/25 07:45:28;;;;;;;2.05;0.95;;;12.50;98.60;;;;;;5104496;28;20030;-70
2023/03/25 07:47:54;;;;;;;2.30;1.08;;;12.50;98.50;;;;;;5089959;28;20059;-69
2023/03/25 07:50:21;;;;;;;1.85;1.00;;;12.50;98.30;;;;;;5090264;28;20475;-68
2023/03/25 07:52:46;;;;;;;4.38;1.40;;;12.60;98.20;;;;;;5086194;28;20039;-69
2023/03/25 07:55:13;;;;;;;4.00;1.50;;;12.60;97.80;;;;;;5096044;28;20040;-69
2023/03/25 07:57:40;;;;;;;2.60;1.50;;;12.70;97.80;;;;;;5107512;28;20087;-69
2023/03/25 08:00:07;;;;;;;3.20;1.25;;;12.70;97.70;;;;;;5103285;28;20054;-69
2023/03/25 08:02:33;;;;;;;3.13;1.33;;;12.80;97.60;;;;;;5093592;28;20173;-69
2023/03/25 08:04:59;;;;;;;4.70;1.77;;;12.90;97.40;;;;;;5092681;28;20106;-69
2023/03/25 08:07:27;;;;;;;3.95;1.00;;;13.00;97.30;;;;;;5114448;28;20102;-69
2023/03/25 08:09:52;;;;;;;3.95;1.20;;;13.10;97.20;;;;;;5108780;28;20035;-69
2023/03/25 08:12:18;;;;;;;4.50;1.52;;;13.20;96.90;;;;;;5092677;28;20403;-70
2023/03/25 08:14:44;;;;;;;3.33;1.50;;;13.20;96.70;;;;;;5111500;28;20020;-71
2023/03/25 08:17:09;;;;;;;4.05;1.88;;;13.30;96.60;;;;;;5092740;28;20421;-70
2023/03/25 08:19:35;;;;;;;3.25;1.40;;;13.50;96.60;;;;;;5110406;28;20112;-71
2023/03/25 08:22:01;;;;;;;3.28;1.00;;;13.60;96.40;;;;;;5101979;28;20112;-70
2023/03/25 08:24:28;;;;;;;2.53;1.35;;;13.60;96.20;;;;;;5092373;28;20383;-70
2023/03/25 08:26:55;;;;;;;5.28;1.42;;;13.70;96.10;;;;;;5087850;28;20024;-72
2023/03/25 08:29:20;;;;;;;4.00;1.05;;;13.80;95.70;;;;;;5089278;28;20050;-74
2023/03/25 08:31:50;;;;;;;3.17;1.25;;;13.90;95.70;;;;;;5084461;28;20025;-74
2023/03/25 08:34:18;;;;;;;3.38;1.63;;;14.00;95.50;;;;;;5077199;28;20104;-74
2023/03/25 08:36:44;;;;;;;2.58;1.13;;;14.10;95.30;;;;;;5092373;28;20032;-73
2023/03/25 08:39:11;;;;;;;2.67;1.40;;;14.10;95.10;;;;;;5085449;28;20039;-74
2023/03/25 08:41:38;;;;;;;2.83;1.15;;;14.20;95.00;;;;;;5093179;28;20050;-74
2023/03/25 08:44:05;;;;;;;4.65;1.27;;;14.30;94.80;;;;;;5098263;28;20119;-73
2023/03/25 08:46:31;;;;;;;1.92;1.23;;;14.30;94.80;;;;;;5091051;28;20039;-74
2023/03/25 08:48:56;;;;;;;5.07;1.55;;;14.40;94.50;;;;;;5088259;28;20040;-74
2023/03/25 08:51:22;;;;;;;3.17;1.23;;;14.50;94.50;;;;;;5092486;28;20539;-74
2023/03/25 08:53:48;;;;;;;2.33;0.90;;;14.60;94.10;;;;;;5099283;28;20027;-73
2023/03/25 08:56:14;;;;;;;2.92;1.42;;;14.60;93.80;;;;;;5094357;28;20021;-73
2023/03/25 08:58:39;;;;;;;3.78;1.20;;;14.60;93.80;;;;;;5091097;28;20109;-75
2023/03/25 09:01:05;;;;;;;1.73;1.13;;;14.70;93.60;;;;;;5091979;28;20031;-74
2023/03/25 09:03:32;;;;;;;2.05;0.80;;;14.70;93.40;;;;;;5097381;28;20067;-74
2023/03/25 09:05:57;;;;;;;3.65;1.05;;;14.70;93.20;;;;;;5102361;28;20107;-74
2023/03/25 09:08:23;;;;;;;1.40;0.95;;;14.70;93.00;;;;;;5090912;28;20107;-73
2023/03/25 09:10:49;;;;;;;1.88;0.93;;;14.70;92.80;;;;;;5102545;28;20055;-76
2023/03/25 09:13:15;;;;;;;2.13;1.00;;;14.60;92.70;;;;;;5096780;28;20070;-74
2023/03/25 09:15:41;;;;;;;2.35;1.10;;;14.70;92.60;;;;;;5091465;28;20373;-73
2023/03/25 09:18:06;;;;;;;2.50;1.40;;;14.60;92.30;;;;;;5090550;28;20158;-73
2023/03/25 09:20:32;;;;;;;4.28;1.75;;;14.60;92.10;;;;;;5095899;28;20503;-74
2023/03/25 09:22:58;;;;;;;1.70;1.20;;;14.60;92.10;;;;;;5100629;28;20036;-73
2023/03/25 09:25:24;;;;;;;4.15;0.95;;;14.70;92.20;;;;;;5099966;28;20028;-72
2023/03/25 09:27:50;;;;;;;1.55;1.00;;;14.70;92.10;;;;;;5100106;28;20039;-72
2023/03/25 09:30:16;;;;;;;1.92;1.20;;;14.70;91.90;;;;;;5095447;28;20036;-72
2023/03/25 09:32:43;;;;;;;2.75;1.20;;;14.70;91.80;;;;;;5111316;28;20023;-72
2023/03/25 09:35:09;;;;;;;2.88;1.50;;;14.80;91.80;;;;;;5095902;28;20309;-72
2023/03/25 09:37:35;;;;;;;1.95;1.30;;;14.90;91.80;;;;;;5106944;28;20277;-72
2023/03/25 09:40:01;;;;;;;3.53;1.33;;;15.00;91.60;;;;;;5078929;28;20020;-72
2023/03/25 09:42:40;;;;;;;1.35;1.05;;;14.90;91.50;;;;;;5088166;28;20036;-72
2023/03/25 09:45:24;;;;;;;2.20;0.80;;;14.90;91.30;;;;;;5090778;28;20020;-72
2023/03/25 09:47:56;;;;;;;3.22;1.30;;;14.90;91.10;;;;;;5092301;28;20387;-72
2023/03/25 09:50:23;;;;;;;1.83;1.02;;;14.90;91.00;;;;;;5071893;28;20021;-72
2023/03/25 09:52:52;;;;;;;0.80;0.80;;;14.90;90.70;;;;;;5072226;28;20031;-72
2023/03/25 09:55:25;;;;;;;3.70;1.40;;;14.90;90.80;;;;;;5086902;28;20379;-72
2023/03/25 09:57:57;;;;;;;1.80;0.98;;;14.90;90.60;;;;;;5081802;28;20020;-72
2023/03/25 10:00:24;;;;;;;1.90;0.95;;;14.90;90.60;;;;;;5071722;28;20098;-74
2023/03/25 10:03:11;;;;;;;2.00;1.15;;;14.90;90.50;;;;;;5089347;28;20063;-72
2023/03/25 10:05:58;;;;;;;0.93;0.80;;;14.90;90.40;;;;;;5089885;28;20115;-73
2023/03/25 10:08:45;;;;;;;2.50;1.27;;;15.00;90.40;;;;;;5090162;28;20521;-73
2023/03/25 10:11:20;;;;;;;3.00;1.10;;;15.00;90.50;;;;;;5091084;28;20035;-72
2023/03/25 10:14:06;;;;;;;2.60;1.30;;;15.00;90.30;;;;;;5090303;28;20028;-72
2023/03/25 10:16:32;;;;;;;3.25;1.10;;;15.00;90.00;;;;;;5091473;28;20051;-72
2023/03/25 10:19:03;;;;;;;1.77;1.10;;;15.00;89.90;;;;;;5090116;28;20119;-72
2023/03/25 10:21:48;;;;;;;3.80;1.50;;;15.00;89.30;;;;;;5091958;28;20063;-72
2023/03/25 10:24:32;;;;;;;2.28;0.98;;;15.00;89.20;;;;;;5091711;28;20146;-71
2023/03/25 10:27:04;;;;;;;2.25;1.15;;;15.00;88.80;;;;;;5092442;28;20166;-72
2023/03/25 10:29:39;;;;;;;1.13;0.85;;;15.00;88.80;;;;;;5090641;28;20143;-70
2023/03/25 10:32:15;;;;;;;1.42;1.00;;;15.00;88.50;;;;;;5077961;28;20024;-72
2023/03/25 10:34:48;;;;;;;2.53;0.95;;;15.10;88.10;;;;;;5084144;28;20024;-73
2023/03/25 10:37:23;;;;;;;1.30;1.02;;;15.10;87.90;;;;;;5092219;28;20028;-73
2023/03/25 10:39:49;;;;;;;1.52;0.88;;;15.10;87.60;;;;;;5091447;28;20143;-72
2023/03/25 10:42:33;;;;;;;1.65;1.00;;;15.00;87.70;;;;;;5091234;28;20044;-73
2023/03/25 10:44:59;;;;;;;2.25;1.08;;;15.00;87.50;;;;;;5091602;28;20035;-73
2023/03/25 10:47:34;;;;;;;2.13;0.93;;;14.90;87.00;;;;;;5082782;28;20032;-72
2023/03/25 10:50:00;;;;;;;2.92;1.17;;;14.90;87.10;;;;;;5085057;28;20396;-73
2023/03/25 10:52:26;;;;;;;2.28;1.10;;;14.90;87.40;;;;;;5090225;28;20024;-72
2023/03/25 10:54:55;;;;;;;1.38;0.98;;;14.90;87.20;;;;;;5087215;28;20391;-73
2023/03/25 10:57:27;;;;;;;2.78;1.35;;;14.90;87.40;;;;;;5090318;28;20036;-72
2023/03/25 11:00:17;;;;;;;1.95;1.20;;;14.90;87.10;;;;;;5079377;28;20074;-71
2023/03/25 11:02:44;;;;;;;2.05;0.93;;;15.00;87.60;;;;;;5084630;28;20048;-73
2023/03/25 11:05:15;;;;;;;1.40;0.98;;;15.00;87.20;;;;;;5084949;28;20383;-73
2023/03/25 11:07:47;;;;;;;1.20;0.90;;;15.10;87.40;;;;;;5091600;28;20043;-73
2023/03/25 11:10:12;;;;;;;2.63;1.10;;;15.20;87.10;;;;;;5084929;28;20409;-72
2023/03/25 11:12:44;;;;;;;2.10;1.45;;;15.20;86.80;;;;;;5089804;28;20028;-72
2023/03/25 11:15:37;;;;;;;2.30;0.90;;;15.20;86.60;;;;;;5090695;28;20031;-72
2023/03/25 11:18:21;;;;;;;2.70;1.00;;;15.30;86.70;;;;;;5078275;28;20036;-71
2023/03/25 11:21:00;;;;;;;2.40;1.10;;;15.30;86.70;;;;;;5089906;28;20024;-71
2023/03/25 11:23:41;;;;;;;2.92;1.65;;;15.40;86.60;;;;;;5080918;28;20075;-71
2023/03/25 11:26:35;;;;;;;1.80;1.20;;;15.50;86.60;;;;;;5084644;28;20035;-71
2023/03/25 11:29:07;;;;;;;1.63;1.00;;;15.50;86.40;;;;;;5081319;28;20476;-71
2023/03/25 11:31:36;;;;;;;3.22;1.33;;;15.60;86.30;;;;;;5092130;28;20053;-72
2023/03/25 11:34:10;;;;;;;2.90;1.20;;;15.60;85.80;;;;;;5089461;28;20036;-71
2023/03/25 11:36:39;;;;;;;;;;;15.60;85.70;;;;;;5094425;28;20016;-72
2023/03/25 11:39:24;;;;;;;2.58;1.10;;;15.60;86.30;;;;;;5093587;28;19908;-71
2023/03/25 11:41:50;;;;;;;;;;;15.60;85.50;;;;;;5089164;28;20086;-72
2023/03/25 11:44:30;;;;;;;2.42;1.40;;;15.60;85.60;;;;;;5094732;28;19959;-70
2023/03/25 11:47:00;;;;;;;3.83;1.10;;;15.70;85.50;;;;;;5094427;28;20070;-71
2023/03/25 11:49:28;;;;;;;1.83;1.00;;;15.70;85.20;;;;;;5094575;28;20070;-70
2023/03/25 11:52:01;;;;;;;3.65;0.98;;;15.70;84.90;;;;;;5091314;28;20241;-71
2023/03/25 11:54:27;;;;;;;1.42;1.08;;;15.70;85.10;;;;;;5088401;28;20038;-71
2023/03/25 11:56:55;;;;;;;0.80;0.60;;;15.70;85.20;;;;;;5093597;28;20085;-72
2023/03/25 11:59:36;;;;;;;1.70;0.77;;;15.80;85.40;;;;;;5088747;28;20045;-71
2023/03/25 12:02:16;;;;;;;1.40;0.90;;;15.80;85.20;;;;;;5093869;28;20036;-73
2023/03/25 12:05:04;;;;;;;2.75;0.98;;;15.80;85.10;;;;;;5093071;28;20027;-72
2023/03/25 12:07:49;;;;;;;3.17;1.15;;;15.80;85.50;;;;;;5086084;28;20578;-73
2023/03/25 12:10:38;;;;;;;3.05;1.52;;;15.80;85.50;;;;;;5091357;28;20024;-72
2023/03/25 12:13:42;;;;;;;2.13;0.80;;;15.90;85.60;;;;;;5088140;28;20039;-72
2023/03/25 12:16:08;;;;;;;3.75;1.25;;;15.90;85.60;;;;;;5093690;28;20028;-73
2023/03/25 12:18:40;;;;;;;1.17;0.88;;;15.90;85.50;;;;;;5077549;28;20530;-73
2023/03/25 12:21:37;;;;;;;2.20;0.90;;;15.90;85.30;;;;;;5091326;28;20789;-73
2023/03/25 12:24:08;;;;;;;1.83;1.20;;;16.00;85.30;;;;;;5074076;28;20043;-72
2023/03/25 12:26:52;;;;;;;1.67;1.00;;;16.10;85.10;;;;;;5082119;28;20591;-73
2023/03/25 12:29:33;;;;;;;1.35;0.93;;;16.10;84.70;;;;;;5090834;28;20475;-72
2023/03/25 12:32:18;;;;;;;2.15;1.05;;;16.10;84.10;;;;;;5076594;28;20368;-72
2023/03/25 12:35:03;;;;;;;2.88;1.20;;;16.20;83.90;;;;;;5085839;28;20021;-72
2023/03/25 12:37:33;;;;;;;;;;;16.20;83.40;;;;;;5092964;28;20024;-72
2023/03/25 12:40:05;;;;;;;1.90;1.02;;;16.30;83.90;;;;;;5092177;28;20005;-72
2023/03/25 12:43:08;;;;;;;1.00;0.77;;;16.20;82.70;;;;;;5088943;28;20040;-72
2023/03/25 12:45:48;;;;;;;2.90;1.73;;;16.20;82.80;;;;;;5087109;28;20059;-74
2023/03/25 12:48:32;;;;;;;4.25;1.70;;;16.30;83.00;;;;;;5084478;28;20028;-73
2023/03/25 12:51:09;;;;;;;0.88;0.80;;;16.30;83.20;;;;;;5089972;28;20028;-74
2023/03/25 12:53:35;;;;;;;0.73;0.73;;;16.40;82.70;;;;;;5097284;28;20024;-73
2023/03/25 12:56:38;;;;;;;2.25;1.10;;;16.40;82.60;;;;;;5099372;28;20422;-72
2023/03/25 12:59:26;;;;;;;2.13;1.08;;;16.50;82.00;;;;;;5093926;28;20107;-72
2023/03/25 13:02:11;;;;;;;1.80;0.80;;;16.50;81.80;;;;;;5111172;27;20047;-71
2023/03/25 13:04:48;;;;;;;1.38;0.90;;;16.50;82.00;;;;;;5099171;28;20045;-71
2023/03/25 13:07:33;;;;;;;1.60;1.10;;;16.60;82.00;;;;;;5096532;28;20027;-72
2023/03/25 13:10:16;;;;;;;;;;;16.50;81.80;;;;;;5092503;28;20438;-71